This is the latest recevied weather packets stored in our database for station/object NU3S-7. If no packets are shown the sender has not sent any weather packets the latest 10 day(s).
| Time | Temp. | Humidity | Pressure | Rain* | Wind** | Luminosity | Snow |
|---|---|---|---|---|---|---|---|
| 1777812837 | 5.56° C | 95% | 1018 hPa | 0 mm | - | - | - |
| 1777812805 | 5.56° C | 95% | 1018 hPa | 0 mm | - | - | - |
| 1777811645 | 5° C | 98% | 1017.8 hPa | 0 mm | - | - | - |
| 1777811604 | 5° C | 98% | 1017.8 hPa | 0 mm | - | - | - |
| 1777806798 | 1.11° C | 100% | 1017.2 hPa | 0 mm | - | - | - |
| 1777806197 | 1.11° C | 100% | 1017 hPa | 0 mm | - | - | - |
| 1777804994 | 0.56° C | 100% | 1016.7 hPa | 0 mm | - | - | - |
| 1777804399 | 0° C | 100% | 1016.6 hPa | 0 mm | - | - | - |
| 1777803793 | 0.56° C | 100% | 1016.5 hPa | 0 mm | - | - | - |
| 1777800187 | 0.56° C | 100% | 1016.3 hPa | 0 mm | - | - | - |
| 1777799587 | 0.56° C | 100% | 1016.4 hPa | 0 mm | - | - | - |
| 1777798987 | 0.56° C | 100% | 1016.4 hPa | 0 mm | - | - | - |
| 1777798386 | 0.56° C | 100% | 1016.3 hPa | 0 mm | - | - | - |
| 1777797786 | 1.11° C | 100% | 1016.3 hPa | 0 mm | - | - | - |
| 1777797184 | 1.11° C | 100% | 1016.3 hPa | 0 mm | - | - | - |
| 1777796584 | 1.11° C | 100% | 1016.3 hPa | 0 mm | - | - | - |
| 1777795983 | 1.67° C | 100% | 1016.2 hPa | 0 mm | - | - | - |
| 1777795383 | 1.67° C | 100% | 1016.3 hPa | 0 mm | - | - | - |
| 1777794181 | 1.67° C | 100% | 1016.1 hPa | 0 mm | - | - | - |
| 1777793581 | 1.67° C | 100% | 1016.1 hPa | 0 mm | - | - | - |
| 1777792980 | 1.11° C | 100% | 1016.1 hPa | 0 mm | - | - | - |
| 1777792380 | 1.11° C | 100% | 1016 hPa | 0 mm | - | - | - |
| 1777791780 | 1.11° C | 100% | 1016 hPa | 0 mm | - | - | - |
| 1777791179 | 1.11° C | 100% | 1016 hPa | 0 mm | - | - | - |
| 1777790579 | 1.67° C | 100% | 1016.1 hPa | 0 mm | - | - | - |
* Rain since midnight (hover to see other rain measurements)
** Current wind speed in m/s (hover to see current wind gust speed)